Time;durP1;ratioP1;P1;durP2;ratioP2;P2;SDS_P1;SDS_P2;PMS_P1;PMS_P2;Temp;Humidity;BMP_temperature;BMP_pressure;BME280_temperature;BME280_humidity;BME280_pressure;Samples;Min_cycle;Max_cycle;Signal;HPM_P1;HPM_P2
2022/07/06 00:01:25;;;;;;;7.85;2.77;;;;;;;13.25;67.81;101596.41;1698575;83;21087;-92
2022/07/06 00:03:53;;;;;;;7.08;2.45;;;;;;;13.23;67.82;101595.03;1662680;85;21105;-91
2022/07/06 00:06:20;;;;;;;5.17;2.90;;;;;;;13.22;67.90;101597.23;1697445;84;21083;-91
2022/07/06 00:08:47;;;;;;;5.83;2.72;;;;;;;13.19;67.90;101591.84;1694380;83;21063;-93
2022/07/06 00:11:14;;;;;;;4.83;2.90;;;;;;;13.18;68.01;101598.89;1694477;84;21519;-91
2022/07/06 00:13:41;;;;;;;7.35;3.27;;;;;;;13.17;68.05;101601.48;1699492;83;21083;-92
2022/07/06 00:16:11;;;;;;;11.88;3.50;;;;;;;13.15;68.09;101600.11;1674928;84;21737;-93
2022/07/06 00:18:39;;;;;;;5.65;3.00;;;;;;;13.13;68.16;101598.29;1668737;84;21353;-94
2022/07/06 00:21:11;;;;;;;5.83;3.67;;;;;;;13.12;68.27;101603.09;1672281;84;21135;-93
2022/07/06 00:23:37;;;;;;;8.53;3.30;;;;;;;13.09;68.31;101596.42;1668436;84;21091;-91
2022/07/06 00:26:07;;;;;;;6.85;3.30;;;;;;;13.07;68.42;101597.69;1668901;84;21673;-93
2022/07/06 00:28:35;;;;;;;5.20;3.40;;;;;;;13.00;68.49;101591.75;1672892;84;22453;-91
2022/07/06 00:31:01;;;;;;;4.37;3.08;;;;;;;12.99;68.61;101595.27;1668750;84;21115;-92
2022/07/06 00:33:31;;;;;;;7.22;2.83;;;;;;;12.96;68.71;101592.52;1673983;84;21085;-93
2022/07/06 00:35:59;;;;;;;6.25;3.17;;;;;;;12.94;68.79;101593.80;1675774;84;21138;-91
2022/07/06 00:38:33;;;;;;;4.85;2.60;;;;;;;12.91;68.85;101591.48;1675432;84;21106;-91
2022/07/06 00:40:59;;;;;;;6.08;3.10;;;;;;;12.89;68.90;101586.59;1673858;84;21803;-91
2022/07/06 00:43:26;;;;;;;4.72;2.75;;;;;;;12.87;68.97;101584.33;1671875;84;21595;-92
2022/07/06 00:45:53;;;;;;;6.90;2.67;;;;;;;12.84;69.01;101580.75;1668486;84;21055;-92
2022/07/06 00:48:20;;;;;;;6.92;2.70;;;;;;;12.72;69.04;101561.89;1673387;84;21206;-91
2022/07/06 00:50:47;;;;;;;4.05;2.30;;;;;;;12.81;69.03;101571.84;1673607;84;21319;-93
2022/07/06 00:53:14;;;;;;;5.17;2.62;;;;;;;12.78;69.15;101567.38;1674117;84;21765;-91
2022/07/06 00:55:41;;;;;;;4.78;2.42;;;;;;;12.78;69.25;101569.09;1668703;84;21102;-93
2022/07/06 00:58:11;;;;;;;5.15;2.25;;;;;;;12.78;69.25;101575.70;1675165;84;21070;-93
2022/07/06 01:00:40;;;;;;;7.83;2.50;;;;;;;12.77;69.25;101579.22;1676255;84;21051;-93
2022/07/06 01:03:06;;;;;;;5.40;2.65;;;;;;;12.75;69.23;101571.23;1696588;84;20959;-92
2022/07/06 01:05:33;;;;;;;7.65;2.17;;;;;;;12.73;69.22;101565.45;1674473;84;22396;-92
2022/07/06 01:08:00;;;;;;;7.50;2.27;;;;;;;12.69;69.27;101565.78;1668730;84;20937;-92
2022/07/06 01:10:29;;;;;;;7.60;2.30;;;;;;;12.61;69.26;101551.03;1667786;84;21106;-91
2022/07/06 01:13:00;;;;;;;4.58;2.27;;;;;;;12.66;69.26;101559.08;1671677;84;21094;-94
2022/07/06 01:15:27;;;;;;;4.55;2.10;;;;;;;12.67;69.28;101563.92;1671256;84;21103;-93
2022/07/06 01:17:57;;;;;;;3.83;2.20;;;;;;;12.67;69.34;101572.77;1688310;84;21800;-92
2022/07/06 01:20:26;;;;;;;7.08;2.30;;;;;;;12.68;69.41;101565.30;1688899;84;21091;-91
2022/07/06 01:22:58;;;;;;;3.55;2.00;;;;;;;12.66;69.37;101566.11;1686491;84;21102;-92
2022/07/06 01:25:26;;;;;;;4.05;2.00;;;;;;;12.64;69.49;101561.67;1632508;85;21882;-91
2022/07/06 01:27:56;;;;;;;5.45;2.00;;;;;;;12.67;69.48;101569.20;1674541;85;21114;-93
2022/07/06 01:30:25;;;;;;;8.65;2.65;;;;;;;12.66;69.56;101568.32;1691916;84;22837;-91
2022/07/06 01:32:54;;;;;;;4.92;2.10;;;;;;;12.68;69.56;101571.02;1683707;84;21302;-91
2022/07/06 01:35:20;;;;;;;5.47;2.40;;;;;;;12.68;69.63;101569.70;1663640;85;21117;-91
2022/07/06 01:37:53;;;;;;;2.80;1.98;;;;;;;12.68;69.64;101564.41;1696526;82;21070;-91
2022/07/06 01:40:32;;;;;;;5.62;1.80;;;;;;;12.64;69.66;101562.98;1696087;82;21055;-92
2022/07/06 01:42:59;;;;;;;3.52;2.17;;;;;;;12.65;69.69;101562.59;1724683;82;21831;-90
2022/07/06 01:45:30;;;;;;;5.75;2.40;;;;;;;12.65;69.72;101561.27;1725989;82;21077;-91
2022/07/06 01:48:02;;;;;;;3.42;2.00;;;;;;;12.64;69.76;101562.98;1672957;85;21117;-91
2022/07/06 01:50:30;;;;;;;3.30;1.98;;;;;;;12.64;69.72;101560.34;1701243;83;21125;-92
2022/07/06 01:52:55;;;;;;;8.38;2.55;;;;;;;12.66;69.73;101560.83;1685766;82;21130;-92
2022/07/06 01:55:27;;;;;;;9.48;2.40;;;;;;;12.66;69.74;101558.19;1698499;83;21788;-91
2022/07/06 01:58:03;;;;;;;6.25;2.00;;;;;;;12.68;69.80;101560.45;1683059;83;21540;-91
2022/07/06 02:00:26;;;;;;;4.65;2.22;;;;;;;12.69;69.79;101554.30;1696706;82;21060;-92
2022/07/06 02:02:54;;;;;;;4.28;1.90;;;;;;;12.70;69.78;101560.95;1692424;84;21551;-92
2022/07/06 02:05:26;;;;;;;6.95;2.40;;;;;;;12.70;69.77;101556.98;1678410;83;21613;-92
2022/07/06 02:07:51;;;;;;;4.95;1.98;;;;;;;12.71;69.74;101550.88;1678637;83;21801;-91
2022/07/06 02:10:24;;;;;;;8.15;2.25;;;;;;;12.72;69.71;101556.61;1678880;83;21010;-92
2022/07/06 02:12:51;;;;;;;4.55;1.90;;;;;;;12.70;69.74;101549.50;1678427;83;21090;-90
2022/07/06 02:15:19;;;;;;;5.87;2.20;;;;;;;12.70;69.76;101550.82;1678218;83;21087;-93
2022/07/06 02:17:46;;;;;;;5.08;1.95;;;;;;;12.71;69.78;101552.63;1679735;83;21070;-91
2022/07/06 02:20:13;;;;;;;5.53;1.92;;;;;;;12.72;69.78;101557.04;1680737;83;21922;-91
2022/07/06 02:22:41;;;;;;;3.50;1.50;;;;;;;12.70;69.79;101554.78;1680560;83;21094;-91
2022/07/06 02:25:12;;;;;;;6.53;1.70;;;;;;;12.70;69.82;101554.34;1679683;83;21767;-92
2022/07/06 02:27:38;;;;;;;2.62;1.75;;;;;;;12.73;69.85;101558.84;1679216;83;21082;-92
2022/07/06 02:30:07;;;;;;;7.60;1.90;;;;;;;12.72;69.82;101559.25;1678767;84;21122;-92
2022/07/06 02:32:41;;;;;;;3.42;1.90;;;;;;;12.71;69.88;101558.80;1678706;83;21761;-91
2022/07/06 02:35:12;;;;;;;13.68;2.87;;;;;;;12.72;69.90;101564.53;1684755;83;21101;-91
2022/07/06 02:37:37;;;;;;;4.42;1.90;;;;;;;12.74;69.90;101562.83;1659054;83;21102;-91
2022/07/06 02:40:07;;;;;;;4.97;1.90;;;;;;;12.75;69.89;101563.75;1687147;83;22186;-90
2022/07/06 02:42:36;;;;;;;5.28;1.92;;;;;;;12.75;69.90;101563.31;1687625;83;21075;-91
2022/07/06 02:45:04;;;;;;;4.60;1.72;;;;;;;12.77;69.94;101562.04;1687537;84;21844;-91
2022/07/06 02:47:37;;;;;;;6.62;1.72;;;;;;;12.76;69.87;101559.83;1687515;83;21639;-91
2022/07/06 02:50:07;;;;;;;5.35;1.98;;;;;;;12.75;69.87;101556.70;1686649;83;21385;-92
2022/07/06 02:52:34;;;;;;;5.08;1.80;;;;;;;12.76;69.94;101562.47;1687738;83;21098;-91
2022/07/06 02:55:05;;;;;;;8.13;2.10;;;;;;;12.80;69.98;101570.03;1652610;84;21336;-91
2022/07/06 02:57:31;;;;;;;3.85;1.65;;;;;;;12.81;69.98;101569.20;1687385;83;21806;-90
2022/07/06 02:59:58;;;;;;;3.50;1.60;;;;;;;12.81;69.93;101566.12;1687847;83;21078;-92
2022/07/06 03:02:27;;;;;;;5.20;2.00;;;;;;;12.83;69.98;101567.06;1688246;84;21073;-92
2022/07/06 03:04:54;;;;;;;5.92;2.15;;;;;;;12.87;70.02;101570.69;1687805;83;21696;-90
2022/07/06 03:07:21;;;;;;;4.47;2.20;;;;;;;12.91;70.03;101564.63;1695859;83;21102;-91
2022/07/06 03:09:48;;;;;;;9.68;2.30;;;;;;;12.96;70.00;101566.09;1689148;83;21734;-92
2022/07/06 03:12:15;;;;;;;6.75;2.67;;;;;;;12.98;69.95;101569.68;1705503;83;21452;-94
2022/07/06 03:14:55;;;;;;;5.03;2.35;;;;;;;13.07;70.01;101564.66;1701513;83;21005;-92
2022/07/06 03:17:20;;;;;;;8.33;2.50;;;;;;;13.15;69.99;101551.20;1700965;83;21083;-93
2022/07/06 03:19:46;;;;;;;8.35;2.52;;;;;;;13.28;69.96;101556.84;1694358;83;21063;-93
2022/07/06 03:22:15;;;;;;;5.47;2.35;;;;;;;13.39;69.90;101551.45;1703845;83;21763;-93
2022/07/06 03:24:41;;;;;;;5.45;2.70;;;;;;;13.49;69.83;101548.17;1709334;83;21086;-93
2022/07/06 03:27:08;;;;;;;9.38;2.67;;;;;;;13.58;69.71;101547.09;1688063;83;21091;-93
2022/07/06 03:29:37;;;;;;;6.12;2.70;;;;;;;13.68;69.62;101543.34;1705288;83;21619;-90
2022/07/06 03:32:04;;;;;;;7.03;2.67;;;;;;;13.80;69.60;101541.02;1681728;83;21665;-89
2022/07/06 03:34:31;;;;;;;6.58;2.50;;;;;;;13.94;69.46;101532.97;1695203;83;21758;-89
2022/07/06 03:36:58;;;;;;;6.60;2.45;;;;;;;14.16;69.43;101542.31;1691230;83;21185;-89
2022/07/06 03:39:24;;;;;;;3.47;2.33;;;;;;;14.33;69.15;101534.74;1680152;83;21113;-89
2022/07/06 03:41:52;;;;;;;5.20;2.60;;;;;;;14.59;69.37;101537.11;1685719;83;21540;-89
2022/07/06 03:44:18;;;;;;;6.92;2.25;;;;;;;14.99;69.03;101538.34;1679980;83;21109;-89
2022/07/06 03:46:47;;;;;;;8.63;2.42;;;;;;;15.36;68.71;101535.51;1686269;83;22632;-88
2022/07/06 03:49:14;;;;;;;5.25;2.30;;;;;;;15.62;68.20;101536.84;1688032;83;21778;-88
2022/07/06 03:51:44;;;;;;;4.78;1.80;;;;;;;15.81;67.61;101536.30;1718538;81;21684;-88
2022/07/06 03:54:10;;;;;;;5.35;1.67;;;;;;;16.04;67.52;101539.75;1672906;84;21090;-89
2022/07/06 03:56:38;;;;;;;7.60;2.55;;;;;;;16.27;66.93;101542.32;1688067;82;21086;-89
2022/07/06 03:59:07;;;;;;;6.40;2.12;;;;;;;16.31;66.26;101544.14;1697399;83;21089;-90
2022/07/06 04:01:37;;;;;;;4.17;2.25;;;;;;;16.31;65.93;101540.57;1678494;84;21074;-88
2022/07/06 04:04:36;;;;;;;8.80;2.35;;;;;;;16.29;65.77;101539.25;1690238;83;21158;-88
2022/07/06 04:07:02;;;;;;;6.87;2.42;;;;;;;16.30;65.62;101533.49;1716508;82;21086;-90
2022/07/06 04:09:30;;;;;;;8.90;2.37;;;;;;;16.27;65.32;101536.09;1682872;82;21851;-87
2022/07/06 04:11:59;;;;;;;7.03;3.12;;;;;;;16.27;65.38;101534.77;1707940;82;21731;-86
2022/07/06 04:14:27;;;;;;;8.85;2.42;;;;;;;16.31;65.25;101541.90;1705449;82;21618;-86
2022/07/06 04:16:54;;;;;;;8.18;2.02;;;;;;;16.30;65.12;101536.15;1709473;82;21163;-87
2022/07/06 04:19:20;;;;;;;6.72;2.30;;;;;;;16.33;65.02;101531.77;1714487;81;21334;-86
2022/07/06 04:21:47;;;;;;;4.72;2.30;;;;;;;16.36;64.92;101530.02;1711434;82;21114;-86
2022/07/06 04:24:16;;;;;;;8.00;2.70;;;;;;;16.39;64.99;101528.31;1709260;82;21877;-86
2022/07/06 04:26:45;;;;;;;6.08;2.47;;;;;;;16.42;64.82;101528.36;1707566;82;21120;-86
2022/07/06 04:29:14;;;;;;;7.05;2.95;;;;;;;16.46;64.77;101535.49;1708624;82;21027;-86
2022/07/06 04:31:44;;;;;;;4.37;2.17;;;;;;;16.52;64.73;101532.91;1704857;82;21143;-86
2022/07/06 04:34:11;;;;;;;11.25;2.65;;;;;;;16.61;64.62;101526.83;1704478;82;21120;-88
2022/07/06 04:36:38;;;;;;;7.17;2.42;;;;;;;16.65;64.57;101525.98;1682719;83;21805;-88
2022/07/06 04:39:12;;;;;;;6.00;2.05;;;;;;;16.72;64.54;101524.28;1682963;83;21126;-89
2022/07/06 04:41:36;;;;;;;8.38;2.72;;;;;;;16.83;64.53;101521.79;1680066;83;21491;-89
2022/07/06 04:44:03;;;;;;;8.45;2.83;;;;;;;16.97;64.47;101514.87;1682033;83;21079;-88
2022/07/06 04:46:30;;;;;;;6.92;2.37;;;;;;;17.06;64.25;101520.29;1676204;84;21100;-89
2022/07/06 04:48:59;;;;;;;6.25;2.17;;;;;;;17.12;64.30;101506.58;1675508;83;21829;-96
2022/07/06 04:51:27;;;;;;;7.03;2.17;;;;;;;17.26;64.03;101511.16;1686817;83;21112;-96
2022/07/06 04:53:54;;;;;;;8.95;2.12;;;;;;;17.29;63.79;101505.88;1673398;84;21748;-95
2022/07/06 04:56:21;;;;;;;4.92;2.00;;;;;;;17.33;63.87;101508.58;1676255;84;21086;-91
2022/07/06 04:58:50;;;;;;;4.90;1.95;;;;;;;18.48;66.73;101499.18;1675760;84;21155;-89
2022/07/06 05:01:16;;;;;;;2.98;1.57;;;;;;;19.54;63.83;101490.08;1674485;85;21850;-89
2022/07/06 05:03:43;;;;;;;8.03;1.75;;;;;;;20.71;64.99;101488.52;1675537;84;21088;-87
2022/07/06 05:06:14;;;;;;;4.42;1.98;;;;;;;22.40;62.41;101483.54;1672490;84;21111;-88
2022/07/06 05:08:43;;;;;;;7.28;2.15;;;;;;;25.07;62.72;101479.73;1672867;84;21172;-88
2022/07/06 05:11:10;;;;;;;6.60;1.70;;;;;;;28.05;59.50;101477.69;1674717;84;21100;-88
2022/07/06 05:13:38;;;;;;;7.87;1.95;;;;;;;30.38;56.41;101470.41;1677753;83;21303;-88
2022/07/06 05:16:05;;;;;;;4.90;1.90;;;;;;;32.37;53.21;101478.61;1675177;84;21075;-88
2022/07/06 05:18:34;;;;;;;4.12;1.90;;;;;;;33.49;49.83;101473.58;1670008;85;21048;-88
2022/07/06 05:21:01;;;;;;;5.10;2.40;;;;;;;33.63;47.25;101473.61;1674559;84;21104;-88
2022/07/06 05:23:28;;;;;;;7.22;2.30;;;;;;;34.77;46.26;101474.72;1675088;84;21425;-88
2022/07/06 05:25:58;;;;;;;5.95;2.00;;;;;;;35.44;44.35;101472.58;1672316;84;22203;-88
2022/07/06 05:28:27;;;;;;;5.65;1.87;;;;;;;36.16;42.70;101467.52;1673177;84;21112;-91
2022/07/06 05:30:54;;;;;;;5.60;2.08;;;;;;;36.61;40.87;101468.42;1675635;84;21080;-96
2022/07/06 05:33:23;;;;;;;7.50;1.45;;;;;;;37.33;39.64;101467.65;1674258;85;21314;-96
2022/07/06 05:35:50;;;;;;;5.05;1.42;;;;;;;36.71;37.29;101469.52;1700832;81;21070;-96
2022/07/06 05:38:20;;;;;;;5.75;1.30;;;;;;;36.13;37.88;101465.02;1675092;84;21807;-94
2022/07/06 05:40:47;;;;;;;4.22;1.60;;;;;;;36.47;37.25;101463.08;1671384;83;22248;-92
2022/07/06 05:43:16;;;;;;;3.65;1.25;;;;;;;37.42;36.55;101460.58;1668509;84;21125;-96
2022/07/06 05:45:42;;;;;;;3.67;1.37;;;;;;;38.15;35.12;101461.31;1673213;83;21321;-93
2022/07/06 05:50:57;;;;;;;3.05;1.20;;;;;;;34.65;32.72;101464.08;1665899;84;21810;-93
2022/07/06 05:53:24;;;;;;;5.72;1.10;;;;;;;32.32;33.43;101468.84;1681591;84;21169;-92
2022/07/06 05:55:51;;;;;;;4.50;1.30;;;;;;;30.52;34.09;101467.52;1680455;84;21547;-93
2022/07/06 05:58:17;;;;;;;5.17;2.17;;;;;;;29.22;35.32;101470.47;1676639;83;21081;-92
2022/07/06 06:00:44;;;;;;;3.85;1.67;;;;;;;28.51;36.14;101465.59;1676490;85;21137;-92
2022/07/06 06:03:11;;;;;;;4.08;1.70;;;;;;;27.77;36.29;101466.06;1675694;84;21786;-91
2022/07/06 06:05:38;;;;;;;4.08;2.55;;;;;;;26.85;37.08;101468.17;1675716;84;21412;-91
2022/07/06 06:08:05;;;;;;;8.53;1.50;;;;;;;26.22;37.78;101462.41;1671218;83;21576;-91
2022/07/06 06:10:34;;;;;;;3.67;1.47;;;;;;;25.69;38.44;101458.42;1679387;83;21070;-91
2022/07/06 06:13:01;;;;;;;5.55;1.67;;;;;;;25.26;39.07;101466.27;1675161;83;21062;-90
2022/07/06 06:15:28;;;;;;;2.92;1.62;;;;;;;24.99;39.77;101439.52;1676616;84;21809;-91
2022/07/06 06:17:55;;;;;;;4.67;1.37;;;;;;;24.95;39.96;101454.87;1667115;83;21516;-90
2022/07/06 06:20:21;;;;;;;4.62;1.47;;;;;;;24.86;40.31;101458.23;1673370;83;21616;-91
2022/07/06 06:22:53;;;;;;;2.87;1.50;;;;;;;24.82;40.50;101456.95;1672932;83;21122;-91
2022/07/06 06:25:36;;;;;;;4.00;1.42;;;;;;;24.71;40.76;101452.28;1654131;85;21094;-91
2022/07/06 06:28:04;;;;;;;4.95;1.60;;;;;;;24.47;40.94;101449.63;1682119;84;21759;-91
2022/07/06 06:30:31;;;;;;;3.83;1.30;;;;;;;24.12;41.34;101445.89;1662464;84;21517;-91
2022/07/06 06:33:10;;;;;;;3.40;1.55;;;;;;;23.88;41.70;101441.88;1705216;82;21080;-92
2022/07/06 06:35:44;;;;;;;3.77;1.32;;;;;;;23.63;42.09;101446.78;1649717;83;21136;-91
2022/07/06 06:38:11;;;;;;;3.47;1.30;;;;;;;23.30;42.37;101454.53;1665050;83;21169;-91
2022/07/06 06:40:38;;;;;;;3.33;1.32;;;;;;;22.88;42.85;101444.84;1680085;83;22432;-93
2022/07/06 06:43:04;;;;;;;4.97;1.25;;;;;;;22.60;43.65;101451.06;1707928;83;21045;-91
2022/07/06 06:45:33;;;;;;;7.45;1.40;;;;;;;22.46;44.06;101448.12;1675451;84;21080;-91
2022/07/06 06:48:00;;;;;;;2.72;1.15;;;;;;;22.27;44.20;101447.93;1685273;83;21303;-91
2022/07/06 06:50:27;;;;;;;2.62;1.12;;;;;;;22.07;44.55;101440.99;1708057;83;21085;-91
2022/07/06 06:52:54;;;;;;;4.95;1.20;;;;;;;21.92;44.98;101436.69;1678892;83;21728;-91
2022/07/06 06:55:20;;;;;;;5.10;2.55;;;;;;;21.79;45.24;101443.09;1678820;83;21100;-91
2022/07/06 06:57:47;;;;;;;5.35;1.40;;;;;;;21.74;45.35;101439.10;1675910;83;21064;-91
2022/07/06 07:00:14;;;;;;;4.78;2.20;;;;;;;21.69;45.44;101436.91;1707846;83;21393;-91
2022/07/06 07:02:41;;;;;;;6.80;1.95;;;;;;;21.64;45.48;101437.44;1707828;83;21085;-90
2022/07/06 07:05:08;;;;;;;6.37;2.40;;;;;;;21.57;45.51;101433.46;1707933;82;21689;-89
2022/07/06 07:07:36;;;;;;;2.02;1.50;;;;;;;21.49;45.41;101433.53;1681485;83;21089;-91
2022/07/06 07:10:05;;;;;;;3.20;1.87;;;;;;;21.28;45.32;101435.47;1702008;82;21527;-90
2022/07/06 07:12:33;;;;;;;7.08;1.37;;;;;;;21.10;46.04;101438.32;1660886;83;22432;-91
2022/07/06 07:15:00;;;;;;;4.55;1.37;;;;;;;21.13;46.46;101436.52;1668613;84;21098;-92
2022/07/06 07:17:29;;;;;;;3.83;1.45;;;;;;;21.13;46.46;101436.52;1690443;83;21754;-90
2022/07/06 07:19:57;;;;;;;3.83;1.37;;;;;;;21.12;46.25;101433.84;1690569;83;21154;-90
2022/07/06 07:22:24;;;;;;;4.87;1.47;;;;;;;21.12;46.19;101429.83;1690528;82;21137;-90
2022/07/06 07:24:54;;;;;;;6.67;2.27;;;;;;;21.14;46.37;101436.93;1690279;82;21619;-89
2022/07/06 07:27:21;;;;;;;3.67;1.72;;;;;;;21.10;46.28;101436.52;1668688;83;21116;-90
2022/07/06 07:29:47;;;;;;;2.05;1.00;;;;;;;21.11;46.36;101435.60;1690351;82;22475;-90
2022/07/06 07:32:14;;;;;;;7.75;2.60;;;;;;;21.14;46.50;101431.58;1690270;83;21082;-89
2022/07/06 07:34:41;;;;;;;6.65;1.15;;;;;;;21.24;46.62;101428.37;1690528;83;21381;-90
2022/07/06 07:37:08;;;;;;;2.92;2.10;;;;;;;21.30;46.36;101428.77;1677898;83;21142;-92
2022/07/06 07:39:34;;;;;;;5.80;1.30;;;;;;;21.38;46.44;101408.61;1677236;83;21055;-90
2022/07/06 07:42:01;;;;;;;4.22;1.10;;;;;;;21.48;46.10;101413.03;1677492;83;21758;-90
2022/07/06 07:44:28;;;;;;;2.55;1.20;;;;;;;21.70;45.96;101419.95;1677406;83;21117;-90
2022/07/06 07:46:56;;;;;;;4.40;1.30;;;;;;;21.70;45.96;101419.95;1655713;84;33689;-90
2022/07/06 07:49:23;;;;;;;4.67;1.32;;;;;;;21.69;45.53;101396.72;1677502;83;21138;-90
2022/07/06 07:51:50;;;;;;;4.42;1.72;;;;;;;21.76;45.12;101400.70;1656522;84;21142;-91
2022/07/06 07:54:16;;;;;;;11.25;1.90;;;;;;;21.97;44.91;101421.88;1677762;83;21736;-90
2022/07/06 07:56:43;;;;;;;3.62;1.07;;;;;;;21.95;44.77;101408.95;1677588;83;21065;-90
2022/07/06 07:59:10;;;;;;;2.35;0.80;;;;;;;22.17;44.58;101416.72;1677364;85;21839;-90
2022/07/06 08:01:37;;;;;;;5.30;1.05;;;;;;;22.40;44.07;101421.84;1677576;83;21529;-90
2022/07/06 08:04:07;;;;;;;1.35;0.85;;;;;;;22.58;43.91;101424.28;1675800;83;21079;-90
2022/07/06 08:06:33;;;;;;;2.40;1.50;;;;;;;22.63;43.65;101400.93;1676113;83;21784;-90
2022/07/06 08:09:03;;;;;;;1.90;0.88;;;;;;;22.86;43.17;101423.42;1677632;83;20979;-89
2022/07/06 08:11:28;;;;;;;2.45;1.10;;;;;;;23.00;42.92;101421.85;1677273;84;21325;-91
2022/07/06 08:13:55;;;;;;;4.67;1.10;;;;;;;23.18;42.46;101417.11;1677847;83;21376;-90
2022/07/06 08:16:22;;;;;;;4.20;1.15;;;;;;;23.25;42.13;101416.98;1677790;83;21716;-91
2022/07/06 08:18:49;;;;;;;3.52;0.60;;;;;;;23.39;42.05;101422.60;1677602;83;21798;-90
2022/07/06 08:21:16;;;;;;;4.10;1.20;;;;;;;23.59;41.89;101415.04;1677918;83;21071;-91
2022/07/06 08:23:42;;;;;;;3.65;2.65;;;;;;;23.81;41.76;101414.69;1678108;83;21067;-91
2022/07/06 08:26:09;;;;;;;3.50;1.40;;;;;;;24.11;41.34;101408.27;1677904;83;21608;-91
2022/07/06 08:28:36;;;;;;;1.55;0.98;;;;;;;24.21;41.07;101406.70;1677618;83;21162;-90
2022/07/06 08:31:02;;;;;;;5.85;1.22;;;;;;;24.36;40.93;101404.14;1677687;83;21757;-90
2022/07/06 08:33:29;;;;;;;5.03;1.40;;;;;;;24.29;39.92;101415.95;1656209;85;21629;-90
2022/07/06 08:35:56;;;;;;;3.12;1.15;;;;;;;24.04;39.69;101404.37;1677890;83;21184;-91
2022/07/06 08:38:23;;;;;;;3.65;1.47;;;;;;;23.80;39.76;101413.80;1678181;83;21142;-90
2022/07/06 08:40:51;;;;;;;2.10;1.20;;;;;;;23.56;39.51;101411.55;1678060;83;21066;-90
2022/07/06 08:43:19;;;;;;;4.40;1.37;;;;;;;23.34;39.60;101400.30;1677633;83;21777;-89
2022/07/06 08:45:45;;;;;;;3.15;1.10;;;;;;;23.35;39.97;101400.70;1678273;83;21070;-90
2022/07/06 08:48:18;;;;;;;3.30;1.20;;;;;;;23.55;40.04;101399.89;1677714;83;21090;-90
2022/07/06 08:50:45;;;;;;;4.17;1.37;;;;;;;23.70;39.70;101401.88;1677346;83;21118;-91
2022/07/06 08:53:12;;;;;;;3.27;1.05;;;;;;;23.78;39.57;101395.87;1678051;83;21083;-89
2022/07/06 08:55:40;;;;;;;6.72;1.30;;;;;;;23.85;39.68;101397.10;1677958;83;21958;-90
2022/07/06 08:58:07;;;;;;;6.53;1.82;;;;;;;23.94;39.77;101396.51;1677747;83;21142;-90
2022/07/06 09:00:36;;;;;;;8.05;2.00;;;;;;;24.02;39.67;101392.72;1677667;83;21138;-90
2022/07/06 09:03:03;;;;;;;4.90;1.35;;;;;;;24.00;38.96;101390.53;1677929;83;21379;-89
2022/07/06 09:05:30;;;;;;;4.62;1.52;;;;;;;23.84;38.69;101389.09;1678143;83;21097;-90
2022/07/06 09:07:57;;;;;;;1.80;1.00;;;;;;;23.85;39.05;101390.38;1677561;83;21792;-90
2022/07/06 09:10:26;;;;;;;1.95;1.40;;;;;;;24.07;39.09;101383.23;1677340;83;21091;-90
2022/07/06 09:12:52;;;;;;;3.70;1.55;;;;;;;24.38;38.92;101379.87;1677740;83;21153;-89
2022/07/06 09:15:19;;;;;;;4.42;2.20;;;;;;;24.71;38.63;101386.31;1677367;83;22068;-90
2022/07/06 09:17:45;;;;;;;7.03;1.90;;;;;;;24.82;38.12;101397.72;1656438;84;21592;-90
2022/07/06 09:20:13;;;;;;;4.28;1.07;;;;;;;24.67;37.77;101407.51;1677930;83;21861;-89
2022/07/06 09:22:40;;;;;;;6.95;2.02;;;;;;;24.10;37.17;101422.61;1677549;83;21090;-90
2022/07/06 09:25:12;;;;;;;2.27;1.00;;;;;;;23.17;38.01;101423.41;1656029;85;21153;-89
2022/07/06 09:27:41;;;;;;;4.58;1.25;;;;;;;22.61;38.35;101442.12;1677772;83;21640;-90
2022/07/06 09:30:10;;;;;;;4.00;1.30;;;;;;;22.02;39.25;101440.61;1677750;83;21102;-89
2022/07/06 09:32:45;;;;;;;5.35;2.80;;;;;;;21.82;39.83;101442.16;1677695;83;21915;-89
2022/07/06 09:35:26;;;;;;;3.77;1.15;;;;;;;21.60;40.28;101441.48;1677123;83;21101;-90
2022/07/06 09:38:05;;;;;;;4.58;2.10;;;;;;;21.44;40.73;101440.72;1675955;83;21628;-90
2022/07/06 09:40:38;;;;;;;2.02;0.95;;;;;;;21.34;41.33;101444.81;1675907;83;21091;-90
2022/07/06 09:43:19;;;;;;;3.87;1.27;;;;;;;21.39;41.70;101447.44;1657283;83;21588;-90
2022/07/06 09:45:56;;;;;;;2.20;1.05;;;;;;;21.44;41.96;101446.98;1676184;83;21809;-90
2022/07/06 09:48:27;;;;;;;6.58;1.52;;;;;;;21.63;42.17;101441.00;1675970;83;21114;-90
2022/07/06 09:51:06;;;;;;;2.92;1.15;;;;;;;21.82;42.15;101443.03;1676068;83;21086;-89
2022/07/06 09:53:34;;;;;;;7.25;2.60;;;;;;;22.02;42.06;101443.29;1675757;83;21103;-92
2022/07/06 09:56:01;;;;;;;2.33;1.67;;;;;;;22.18;41.58;101441.30;1655126;83;21110;-90
2022/07/06 09:58:28;;;;;;;9.65;3.00;;;;;;;22.18;41.25;101446.66;1676108;83;21676;-89
2022/07/06 10:01:01;;;;;;;3.17;1.17;;;;;;;22.05;41.24;101441.44;1675967;83;21372;-90
2022/07/06 10:03:30;;;;;;;4.45;1.30;;;;;;;22.00;41.54;101434.34;1616888;84;21111;-90
2022/07/06 10:05:59;;;;;;;5.15;2.12;;;;;;;22.03;41.74;101439.69;1676437;83;21289;-90
2022/07/06 10:08:26;;;;;;;3.33;1.40;;;;;;;21.92;41.63;101438.03;1677272;83;22119;-89
2022/07/06 10:10:53;;;;;;;4.00;1.50;;;;;;;21.94;41.94;101422.81;1675837;83;21764;-90
2022/07/06 10:13:20;;;;;;;3.62;1.10;;;;;;;22.02;41.95;101424.53;1675637;83;21030;-90
2022/07/06 10:15:47;;;;;;;3.20;1.87;;;;;;;22.05;41.70;101432.52;1675447;83;21110;-89
2022/07/06 10:18:14;;;;;;;2.40;1.05;;;;;;;22.01;41.29;101421.39;1675657;83;21106;-90
2022/07/06 10:20:41;;;;;;;3.40;1.20;;;;;;;21.95;41.50;101423.70;1675624;83;21162;-90
2022/07/06 10:23:08;;;;;;;2.47;1.30;;;;;;;22.06;41.17;101424.45;1675652;83;21758;-90
2022/07/06 10:25:35;;;;;;;3.70;1.90;;;;;;;22.06;41.17;101424.45;1675530;83;20979;-90
2022/07/06 10:28:02;;;;;;;2.02;0.98;;;;;;;22.01;41.19;101399.95;1675512;83;21083;-90
2022/07/06 10:30:29;;;;;;;3.58;1.57;;;;;;;22.13;40.60;101430.65;1675558;83;21161;-90
2022/07/06 10:32:57;;;;;;;3.58;1.50;;;;;;;22.04;40.32;101427.61;1675610;85;21146;-90
2022/07/06 10:35:24;;;;;;;1.80;1.17;;;;;;;21.98;40.47;101435.73;1675763;83;22385;-88
2022/07/06 10:38:06;;;;;;;2.83;1.67;;;;;;;21.99;40.49;101428.11;1667650;83;21077;-89
2022/07/06 10:43:33;;;;;;;3.75;1.35;;;;;;;21.90;40.22;101431.80;1644550;85;20417;-89
2022/07/06 10:46:05;;;;;;;2.77;0.98;;;;;;;21.72;40.64;101426.17;1642674;85;21109;-89
2022/07/06 10:48:39;;;;;;;2.05;1.47;;;;;;;21.80;41.26;101431.91;1635070;85;21930;-89
2022/07/06 10:51:06;;;;;;;2.05;1.15;;;;;;;22.05;40.49;101432.52;1650453;85;21081;-88
2022/07/06 10:53:44;;;;;;;3.77;1.67;;;;;;;22.41;40.34;101415.55;1657227;85;21055;-89
2022/07/06 10:56:08;;;;;;;2.98;1.12;;;;;;;22.86;40.19;101418.48;1651194;85;21073;-90
2022/07/06 10:58:53;;;;;;;1.07;0.75;;;;;;;23.24;39.74;101418.38;1644822;85;21105;-89
2022/07/06 11:01:21;;;;;;;2.65;0.90;;;;;;;23.49;39.70;101416.13;1648522;85;22576;-89
2022/07/06 11:04:01;;;;;;;5.15;0.90;;;;;;;23.63;39.49;101429.31;1662271;85;21805;-89
2022/07/06 11:06:27;;;;;;;2.95;0.93;;;;;;;23.13;39.42;101449.90;1644328;85;21532;-89
2022/07/06 11:08:59;;;;;;;2.20;1.00;;;;;;;22.49;39.48;101429.31;1644587;85;21114;-89
2022/07/06 11:11:40;;;;;;;2.52;0.70;;;;;;;22.21;39.71;101448.86;1644966;85;21145;-89
2022/07/06 11:14:15;;;;;;;4.25;1.10;;;;;;;22.02;39.48;101450.87;1666497;84;22658;-88
2022/07/06 11:16:54;;;;;;;4.95;1.07;;;;;;;21.82;39.83;101463.59;1645577;85;21086;-89
2022/07/06 11:19:23;;;;;;;4.37;1.07;;;;;;;21.53;40.07;101469.67;1644813;85;21608;-89
2022/07/06 11:22:06;;;;;;;4.47;1.00;;;;;;;21.29;40.51;101457.80;1646454;85;20991;-88
2022/07/06 11:24:38;;;;;;;4.28;0.95;;;;;;;21.04;40.96;101466.02;1629932;85;21449;-89
2022/07/06 11:27:06;;;;;;;2.75;0.95;;;;;;;20.85;41.42;101467.90;1646565;85;22519;-88
2022/07/06 11:29:38;;;;;;;3.80;1.05;;;;;;;20.71;41.49;101464.44;1646582;85;21477;-89
2022/07/06 11:32:09;;;;;;;4.08;1.20;;;;;;;20.66;42.03;101468.45;1645282;85;21126;-89
2022/07/06 11:34:39;;;;;;;3.10;1.20;;;;;;;20.63;42.01;101474.27;1626245;85;21161;-89
2022/07/06 11:37:13;;;;;;;3.45;1.50;;;;;;;20.52;42.19;101459.60;1656502;85;21015;-89